sensor_id;sensor_type;location;lat;lon;timestamp;P1;durP1;ratioP1;P2;durP2;ratioP2
13477;SDS011;12598;62.382;17.344;2024-03-29T00:00:11;5.15;;;4.57;;
13477;SDS011;12598;62.382;17.344;2024-03-29T00:01:13;5.10;;;4.70;;
13477;SDS011;12598;62.382;17.344;2024-03-29T00:02:14;5.53;;;5.03;;
13477;SDS011;12598;62.382;17.344;2024-03-29T00:03:14;4.75;;;4.35;;
13477;SDS011;12598;62.382;17.344;2024-03-29T00:04:15;5.00;;;4.60;;
13477;SDS011;12598;62.382;17.344;2024-03-29T00:05:16;4.70;;;4.30;;
13477;SDS011;12598;62.382;17.344;2024-03-29T00:06:17;4.53;;;4.13;;
13477;SDS011;12598;62.382;17.344;2024-03-29T00:07:18;4.43;;;4.03;;
13477;SDS011;12598;62.382;17.344;2024-03-29T00:08:19;4.60;;;4.18;;
13477;SDS011;12598;62.382;17.344;2024-03-29T00:09:20;4.45;;;4.07;;
13477;SDS011;12598;62.382;17.344;2024-03-29T00:10:21;4.35;;;4.00;;
13477;SDS011;12598;62.382;17.344;2024-03-29T00:11:21;4.20;;;3.83;;
13477;SDS011;12598;62.382;17.344;2024-03-29T00:12:22;4.25;;;3.95;;
13477;SDS011;12598;62.382;17.344;2024-03-29T00:13:23;4.70;;;4.28;;
13477;SDS011;12598;62.382;17.344;2024-03-29T00:14:24;4.97;;;4.47;;
13477;SDS011;12598;62.382;17.344;2024-03-29T00:15:26;4.25;;;3.95;;
13477;SDS011;12598;62.382;17.344;2024-03-29T00:16:27;4.30;;;3.90;;
13477;SDS011;12598;62.382;17.344;2024-03-29T00:17:28;4.60;;;4.20;;
13477;SDS011;12598;62.382;17.344;2024-03-29T00:18:28;4.68;;;4.28;;
13477;SDS011;12598;62.382;17.344;2024-03-29T00:19:29;4.15;;;3.80;;
13477;SDS011;12598;62.382;17.344;2024-03-29T00:20:31;4.55;;;4.15;;
13477;SDS011;12598;62.382;17.344;2024-03-29T00:21:32;4.15;;;3.85;;
13477;SDS011;12598;62.382;17.344;2024-03-29T00:22:33;4.20;;;3.80;;
13477;SDS011;12598;62.382;17.344;2024-03-29T00:23:33;3.90;;;3.60;;
13477;SDS011;12598;62.382;17.344;2024-03-29T00:24:34;3.67;;;3.38;;
13477;SDS011;12598;62.382;17.344;2024-03-29T00:25:35;3.78;;;3.47;;
13477;SDS011;12598;62.382;17.344;2024-03-29T00:26:36;4.00;;;3.70;;
13477;SDS011;12598;62.382;17.344;2024-03-29T00:27:37;3.75;;;3.40;;
13477;SDS011;12598;62.382;17.344;2024-03-29T00:28:38;3.53;;;3.22;;
13477;SDS011;12598;62.382;17.344;2024-03-29T00:29:39;3.40;;;3.20;;
13477;SDS011;12598;62.382;17.344;2024-03-29T00:30:40;3.80;;;3.50;;
13477;SDS011;12598;62.382;17.344;2024-03-29T00:31:41;3.33;;;3.03;;
13477;SDS011;12598;62.382;17.344;2024-03-29T00:32:41;3.58;;;3.28;;
13477;SDS011;12598;62.382;17.344;2024-03-29T00:33:42;3.60;;;3.30;;
13477;SDS011;12598;62.382;17.344;2024-03-29T00:34:43;3.65;;;3.35;;
13477;SDS011;12598;62.382;17.344;2024-03-29T00:35:44;3.75;;;3.45;;
13477;SDS011;12598;62.382;17.344;2024-03-29T00:36:45;2.97;;;2.78;;
13477;SDS011;12598;62.382;17.344;2024-03-29T00:37:46;3.30;;;3.10;;
13477;SDS011;12598;62.382;17.344;2024-03-29T00:38:47;3.20;;;2.90;;
13477;SDS011;12598;62.382;17.344;2024-03-29T00:39:48;3.03;;;2.83;;
13477;SDS011;12598;62.382;17.344;2024-03-29T00:40:49;3.13;;;2.92;;
13477;SDS011;12598;62.382;17.344;2024-03-29T00:41:50;3.17;;;2.78;;
13477;SDS011;12598;62.382;17.344;2024-03-29T00:42:50;2.92;;;2.72;;
13477;SDS011;12598;62.382;17.344;2024-03-29T00:43:51;3.22;;;2.92;;
13477;SDS011;12598;62.382;17.344;2024-03-29T00:44:52;3.28;;;2.97;;
13477;SDS011;12598;62.382;17.344;2024-03-29T00:45:53;2.80;;;2.60;;
13477;SDS011;12598;62.382;17.344;2024-03-29T00:46:54;2.78;;;2.58;;
13477;SDS011;12598;62.382;17.344;2024-03-29T00:47:55;3.40;;;3.10;;
13477;SDS011;12598;62.382;17.344;2024-03-29T00:48:55;3.08;;;2.88;;
13477;SDS011;12598;62.382;17.344;2024-03-29T00:49:56;3.15;;;2.95;;
13477;SDS011;12598;62.382;17.344;2024-03-29T00:50:57;3.13;;;2.88;;
13477;SDS011;12598;62.382;17.344;2024-03-29T00:51:58;3.22;;;2.92;;
13477;SDS011;12598;62.382;17.344;2024-03-29T00:52:59;3.28;;;3.00;;
13477;SDS011;12598;62.382;17.344;2024-03-29T00:54:00;3.17;;;2.97;;
13477;SDS011;12598;62.382;17.344;2024-03-29T00:55:01;3.17;;;2.95;;
13477;SDS011;12598;62.382;17.344;2024-03-29T00:56:03;3.05;;;2.85;;
13477;SDS011;12598;62.382;17.344;2024-03-29T00:57:04;2.85;;;2.65;;
13477;SDS011;12598;62.382;17.344;2024-03-29T00:58:07;2.92;;;2.72;;
13477;SDS011;12598;62.382;17.344;2024-03-29T00:59:08;3.00;;;2.80;;
13477;SDS011;12598;62.382;17.344;2024-03-29T01:00:09;3.30;;;3.08;;
13477;SDS011;12598;62.382;17.344;2024-03-29T01:01:13;3.72;;;2.90;;
13477;SDS011;12598;62.382;17.344;2024-03-29T01:02:14;2.97;;;2.78;;
13477;SDS011;12598;62.382;17.344;2024-03-29T01:03:14;3.08;;;2.88;;
13477;SDS011;12598;62.382;17.344;2024-03-29T01:04:15;3.08;;;2.45;;
13477;SDS011;12598;62.382;17.344;2024-03-29T01:05:16;3.35;;;3.13;;
13477;SDS011;12598;62.382;17.344;2024-03-29T01:06:17;3.15;;;2.95;;
13477;SDS011;12598;62.382;17.344;2024-03-29T01:07:18;3.38;;;3.13;;
13477;SDS011;12598;62.382;17.344;2024-03-29T01:08:19;2.90;;;2.70;;
13477;SDS011;12598;62.382;17.344;2024-03-29T01:09:20;3.05;;;2.83;;
13477;SDS011;12598;62.382;17.344;2024-03-29T01:10:20;3.33;;;3.03;;
13477;SDS011;12598;62.382;17.344;2024-03-29T01:11:23;3.13;;;2.88;;
13477;SDS011;12598;62.382;17.344;2024-03-29T01:12:24;3.20;;;3.00;;
13477;SDS011;12598;62.382;17.344;2024-03-29T01:13:25;3.22;;;2.88;;
13477;SDS011;12598;62.382;17.344;2024-03-29T01:14:26;3.20;;;3.00;;
13477;SDS011;12598;62.382;17.344;2024-03-29T01:15:26;3.00;;;2.80;;
13477;SDS011;12598;62.382;17.344;2024-03-29T01:16:27;3.90;;;3.58;;
13477;SDS011;12598;62.382;17.344;2024-03-29T01:17:28;3.55;;;3.25;;
13477;SDS011;12598;62.382;17.344;2024-03-29T01:18:29;2.95;;;2.75;;
13477;SDS011;12598;62.382;17.344;2024-03-29T01:19:30;3.30;;;3.08;;
13477;SDS011;12598;62.382;17.344;2024-03-29T01:20:31;3.33;;;3.03;;
13477;SDS011;12598;62.382;17.344;2024-03-29T01:21:32;3.35;;;3.15;;
13477;SDS011;12598;62.382;17.344;2024-03-29T01:22:34;2.70;;;2.50;;
13477;SDS011;12598;62.382;17.344;2024-03-29T01:23:35;3.38;;;3.08;;
13477;SDS011;12598;62.382;17.344;2024-03-29T01:24:38;2.92;;;2.72;;
13477;SDS011;12598;62.382;17.344;2024-03-29T01:25:39;3.92;;;3.20;;
13477;SDS011;12598;62.382;17.344;2024-03-29T01:26:40;3.00;;;2.80;;
13477;SDS011;12598;62.382;17.344;2024-03-29T01:27:41;3.50;;;3.20;;
13477;SDS011;12598;62.382;17.344;2024-03-29T01:28:41;3.40;;;3.10;;
13477;SDS011;12598;62.382;17.344;2024-03-29T01:29:42;3.70;;;3.40;;
13477;SDS011;12598;62.382;17.344;2024-03-29T01:30:43;3.03;;;2.83;;
13477;SDS011;12598;62.382;17.344;2024-03-29T01:31:44;3.47;;;3.17;;
13477;SDS011;12598;62.382;17.344;2024-03-29T01:32:45;3.08;;;2.88;;
13477;SDS011;12598;62.382;17.344;2024-03-29T01:33:46;3.30;;;3.00;;
13477;SDS011;12598;62.382;17.344;2024-03-29T01:34:47;2.90;;;2.70;;
13477;SDS011;12598;62.382;17.344;2024-03-29T01:35:48;3.25;;;2.95;;
13477;SDS011;12598;62.382;17.344;2024-03-29T01:36:49;3.38;;;3.13;;
13477;SDS011;12598;62.382;17.344;2024-03-29T01:37:49;2.75;;;2.55;;
13477;SDS011;12598;62.382;17.344;2024-03-29T01:38:50;3.10;;;2.80;;
13477;SDS011;12598;62.382;17.344;2024-03-29T01:39:54;3.20;;;3.00;;
13477;SDS011;12598;62.382;17.344;2024-03-29T01:40:55;2.80;;;2.60;;
13477;SDS011;12598;62.382;17.344;2024-03-29T01:41:56;3.20;;;3.00;;
13477;SDS011;12598;62.382;17.344;2024-03-29T01:42:57;2.88;;;2.67;;
13477;SDS011;12598;62.382;17.344;2024-03-29T01:43:57;2.70;;;2.50;;
13477;SDS011;12598;62.382;17.344;2024-03-29T01:44:58;2.80;;;2.60;;
13477;SDS011;12598;62.382;17.344;2024-03-29T01:46:00;3.10;;;2.90;;
13477;SDS011;12598;62.382;17.344;2024-03-29T01:47:01;2.83;;;2.63;;
13477;SDS011;12598;62.382;17.344;2024-03-29T01:48:02;3.28;;;3.03;;
13477;SDS011;12598;62.382;17.344;2024-03-29T01:49:04;2.88;;;2.67;;
13477;SDS011;12598;62.382;17.344;2024-03-29T01:50:05;2.78;;;2.58;;
13477;SDS011;12598;62.382;17.344;2024-03-29T01:51:07;2.67;;;2.47;;
13477;SDS011;12598;62.382;17.344;2024-03-29T01:52:12;2.58;;;2.35;;
13477;SDS011;12598;62.382;17.344;2024-03-29T01:53:18;2.65;;;2.45;;
13477;SDS011;12598;62.382;17.344;2024-03-29T01:54:19;2.53;;;2.33;;
13477;SDS011;12598;62.382;17.344;2024-03-29T01:55:20;3.35;;;3.10;;
13477;SDS011;12598;62.382;17.344;2024-03-29T01:56:22;3.05;;;2.58;;
13477;SDS011;12598;62.382;17.344;2024-03-29T01:57:23;2.80;;;2.60;;
13477;SDS011;12598;62.382;17.344;2024-03-29T01:58:24;2.80;;;2.60;;
13477;SDS011;12598;62.382;17.344;2024-03-29T01:59:25;2.80;;;2.60;;
13477;SDS011;12598;62.382;17.344;2024-03-29T02:00:28;2.50;;;2.30;;
13477;SDS011;12598;62.382;17.344;2024-03-29T02:01:34;2.67;;;2.45;;
13477;SDS011;12598;62.382;17.344;2024-03-29T02:02:35;2.63;;;2.42;;
13477;SDS011;12598;62.382;17.344;2024-03-29T02:03:37;2.75;;;2.55;;
13477;SDS011;12598;62.382;17.344;2024-03-29T02:04:38;2.72;;;2.53;;
13477;SDS011;12598;62.382;17.344;2024-03-29T02:05:39;2.92;;;2.55;;
13477;SDS011;12598;62.382;17.344;2024-03-29T02:06:41;2.53;;;2.33;;
13477;SDS011;12598;62.382;17.344;2024-03-29T02:07:42;2.78;;;2.58;;
13477;SDS011;12598;62.382;17.344;2024-03-29T02:08:46;2.45;;;2.25;;
13477;SDS011;12598;62.382;17.344;2024-03-29T02:09:52;2.80;;;2.60;;
13477;SDS011;12598;62.382;17.344;2024-03-29T02:10:53;2.50;;;2.30;;
13477;SDS011;12598;62.382;17.344;2024-03-29T02:11:54;2.50;;;2.30;;
13477;SDS011;12598;62.382;17.344;2024-03-29T02:12:55;2.58;;;2.47;;
13477;SDS011;12598;62.382;17.344;2024-03-29T02:13:56;2.35;;;2.20;;
13477;SDS011;12598;62.382;17.344;2024-03-29T02:14:57;2.67;;;2.47;;
13477;SDS011;12598;62.382;17.344;2024-03-29T02:15:59;2.30;;;2.20;;
13477;SDS011;12598;62.382;17.344;2024-03-29T02:17:00;2.20;;;2.10;;
13477;SDS011;12598;62.382;17.344;2024-03-29T02:18:00;2.20;;;2.00;;
13477;SDS011;12598;62.382;17.344;2024-03-29T02:19:01;2.17;;;1.98;;
13477;SDS011;12598;62.382;17.344;2024-03-29T02:20:02;2.45;;;2.28;;
13477;SDS011;12598;62.382;17.344;2024-03-29T02:21:03;2.13;;;2.03;;
13477;SDS011;12598;62.382;17.344;2024-03-29T02:22:04;2.00;;;1.90;;
13477;SDS011;12598;62.382;17.344;2024-03-29T02:23:11;2.35;;;2.25;;
13477;SDS011;12598;62.382;17.344;2024-03-29T02:24:16;2.35;;;2.15;;
13477;SDS011;12598;62.382;17.344;2024-03-29T02:25:18;2.08;;;1.88;;
13477;SDS011;12598;62.382;17.344;2024-03-29T02:26:18;2.40;;;2.20;;
13477;SDS011;12598;62.382;17.344;2024-03-29T02:27:20;1.88;;;1.77;;
13477;SDS011;12598;62.382;17.344;2024-03-29T02:28:25;2.28;;;2.15;;
13477;SDS011;12598;62.382;17.344;2024-03-29T02:29:26;2.55;;;2.25;;
13477;SDS011;12598;62.382;17.344;2024-03-29T02:30:27;2.33;;;2.15;;
13477;SDS011;12598;62.382;17.344;2024-03-29T02:31:28;2.42;;;2.22;;
13477;SDS011;12598;62.382;17.344;2024-03-29T02:32:29;2.17;;;2.08;;
13477;SDS011;12598;62.382;17.344;2024-03-29T02:33:30;1.90;;;1.80;;
13477;SDS011;12598;62.382;17.344;2024-03-29T02:34:31;1.92;;;1.80;;
13477;SDS011;12598;62.382;17.344;2024-03-29T02:35:32;2.20;;;2.10;;
13477;SDS011;12598;62.382;17.344;2024-03-29T02:36:33;2.03;;;1.92;;
13477;SDS011;12598;62.382;17.344;2024-03-29T02:37:36;2.30;;;2.10;;
13477;SDS011;12598;62.382;17.344;2024-03-29T02:38:37;2.15;;;2.05;;
13477;SDS011;12598;62.382;17.344;2024-03-29T02:39:38;2.40;;;2.20;;
13477;SDS011;12598;62.382;17.344;2024-03-29T02:40:39;2.22;;;2.05;;
13477;SDS011;12598;62.382;17.344;2024-03-29T02:41:40;1.95;;;1.85;;
13477;SDS011;12598;62.382;17.344;2024-03-29T02:42:41;2.00;;;1.90;;
13477;SDS011;12598;62.382;17.344;2024-03-29T02:43:42;2.00;;;1.90;;
13477;SDS011;12598;62.382;17.344;2024-03-29T02:44:43;2.22;;;2.10;;
13477;SDS011;12598;62.382;17.344;2024-03-29T02:45:46;2.25;;;2.05;;
13477;SDS011;12598;62.382;17.344;2024-03-29T02:46:47;1.88;;;1.77;;
13477;SDS011;12598;62.382;17.344;2024-03-29T02:47:47;1.90;;;1.80;;
13477;SDS011;12598;62.382;17.344;2024-03-29T02:48:48;1.95;;;1.85;;
13477;SDS011;12598;62.382;17.344;2024-03-29T02:49:49;2.20;;;2.00;;
13477;SDS011;12598;62.382;17.344;2024-03-29T02:50:50;1.55;;;1.45;;
13477;SDS011;12598;62.382;17.344;2024-03-29T02:51:50;2.22;;;2.08;;
13477;SDS011;12598;62.382;17.344;2024-03-29T02:52:53;2.25;;;2.00;;
13477;SDS011;12598;62.382;17.344;2024-03-29T02:53:54;2.47;;;1.80;;
13477;SDS011;12598;62.382;17.344;2024-03-29T02:54:55;2.38;;;2.17;;
13477;SDS011;12598;62.382;17.344;2024-03-29T02:55:56;1.95;;;1.85;;
13477;SDS011;12598;62.382;17.344;2024-03-29T02:56:56;2.10;;;1.90;;
13477;SDS011;12598;62.382;17.344;2024-03-29T02:57:57;2.22;;;2.03;;
13477;SDS011;12598;62.382;17.344;2024-03-29T02:58:58;1.80;;;1.70;;
13477;SDS011;12598;62.382;17.344;2024-03-29T02:59:59;1.98;;;1.88;;
13477;SDS011;12598;62.382;17.344;2024-03-29T03:01:06;1.70;;;1.60;;
13477;SDS011;12598;62.382;17.344;2024-03-29T03:02:08;1.60;;;1.50;;
13477;SDS011;12598;62.382;17.344;2024-03-29T03:03:09;1.60;;;1.50;;
13477;SDS011;12598;62.382;17.344;2024-03-29T03:04:10;1.70;;;1.60;;
13477;SDS011;12598;62.382;17.344;2024-03-29T03:05:10;1.90;;;1.80;;
13477;SDS011;12598;62.382;17.344;2024-03-29T03:06:11;1.48;;;1.35;;
13477;SDS011;12598;62.382;17.344;2024-03-29T03:07:12;1.90;;;1.80;;
13477;SDS011;12598;62.382;17.344;2024-03-29T03:08:32;2.65;;;1.63;;
13477;SDS011;12598;62.382;17.344;2024-03-29T03:09:51;1.95;;;1.85;;
13477;SDS011;12598;62.382;17.344;2024-03-29T03:11:10;1.50;;;1.40;;
13477;SDS011;12598;62.382;17.344;2024-03-29T03:12:11;1.90;;;1.73;;
13477;SDS011;12598;62.382;17.344;2024-03-29T03:13:12;2.28;;;1.45;;
13477;SDS011;12598;62.382;17.344;2024-03-29T03:14:13;1.85;;;1.75;;
13477;SDS011;12598;62.382;17.344;2024-03-29T03:15:14;2.65;;;1.50;;
13477;SDS011;12598;62.382;17.344;2024-03-29T03:16:14;1.40;;;1.30;;
13477;SDS011;12598;62.382;17.344;2024-03-29T03:17:16;1.80;;;1.58;;
13477;SDS011;12598;62.382;17.344;2024-03-29T03:18:16;1.45;;;1.35;;
13477;SDS011;12598;62.382;17.344;2024-03-29T03:19:17;1.40;;;1.30;;
13477;SDS011;12598;62.382;17.344;2024-03-29T03:20:18;1.58;;;1.48;;
13477;SDS011;12598;62.382;17.344;2024-03-29T03:21:19;1.83;;;1.17;;
13477;SDS011;12598;62.382;17.344;2024-03-29T03:22:21;1.50;;;1.40;;
13477;SDS011;12598;62.382;17.344;2024-03-29T03:23:22;1.70;;;1.40;;
13477;SDS011;12598;62.382;17.344;2024-03-29T03:24:23;1.30;;;1.20;;
13477;SDS011;12598;62.382;17.344;2024-03-29T03:25:24;1.67;;;1.48;;
13477;SDS011;12598;62.382;17.344;2024-03-29T03:26:27;1.77;;;1.67;;
13477;SDS011;12598;62.382;17.344;2024-03-29T03:27:28;1.60;;;1.50;;
13477;SDS011;12598;62.382;17.344;2024-03-29T03:28:28;1.75;;;1.65;;
13477;SDS011;12598;62.382;17.344;2024-03-29T03:29:30;1.50;;;1.40;;
13477;SDS011;12598;62.382;17.344;2024-03-29T03:30:30;1.60;;;1.50;;
13477;SDS011;12598;62.382;17.344;2024-03-29T03:31:31;1.55;;;1.30;;
13477;SDS011;12598;62.382;17.344;2024-03-29T03:32:32;1.40;;;1.30;;
13477;SDS011;12598;62.382;17.344;2024-03-29T03:33:33;1.40;;;1.30;;
13477;SDS011;12598;62.382;17.344;2024-03-29T03:34:34;2.10;;;1.10;;
13477;SDS011;12598;62.382;17.344;2024-03-29T03:35:35;1.38;;;1.27;;
13477;SDS011;12598;62.382;17.344;2024-03-29T03:36:35;1.95;;;1.73;;
13477;SDS011;12598;62.382;17.344;2024-03-29T03:37:36;1.58;;;1.48;;
13477;SDS011;12598;62.382;17.344;2024-03-29T03:38:37;1.55;;;1.45;;
13477;SDS011;12598;62.382;17.344;2024-03-29T03:39:40;1.63;;;1.52;;
13477;SDS011;12598;62.382;17.344;2024-03-29T03:40:41;1.30;;;1.20;;
13477;SDS011;12598;62.382;17.344;2024-03-29T03:41:42;1.80;;;1.30;;
13477;SDS011;12598;62.382;17.344;2024-03-29T03:42:43;1.50;;;1.40;;
13477;SDS011;12598;62.382;17.344;2024-03-29T03:43:43;1.60;;;1.40;;
13477;SDS011;12598;62.382;17.344;2024-03-29T03:44:44;1.40;;;1.30;;
13477;SDS011;12598;62.382;17.344;2024-03-29T03:45:45;1.77;;;1.45;;
13477;SDS011;12598;62.382;17.344;2024-03-29T03:46:48;1.38;;;1.27;;
13477;SDS011;12598;62.382;17.344;2024-03-29T03:47:48;1.15;;;1.05;;
13477;SDS011;12598;62.382;17.344;2024-03-29T03:48:49;1.13;;;1.02;;
13477;SDS011;12598;62.382;17.344;2024-03-29T03:49:50;1.50;;;1.40;;
13477;SDS011;12598;62.382;17.344;2024-03-29T03:50:51;1.40;;;1.30;;
13477;SDS011;12598;62.382;17.344;2024-03-29T03:51:52;1.30;;;1.20;;
13477;SDS011;12598;62.382;17.344;2024-03-29T03:52:53;1.30;;;1.20;;
13477;SDS011;12598;62.382;17.344;2024-03-29T03:53:54;1.30;;;1.20;;
13477;SDS011;12598;62.382;17.344;2024-03-29T03:54:54;1.05;;;0.88;;
13477;SDS011;12598;62.382;17.344;2024-03-29T03:55:55;1.23;;;1.13;;
13477;SDS011;12598;62.382;17.344;2024-03-29T03:56:56;1.30;;;1.20;;
13477;SDS011;12598;62.382;17.344;2024-03-29T03:57:57;1.38;;;1.27;;
13477;SDS011;12598;62.382;17.344;2024-03-29T03:58:58;1.20;;;1.10;;
13477;SDS011;12598;62.382;17.344;2024-03-29T03:59:58;1.50;;;1.40;;
13477;SDS011;12598;62.382;17.344;2024-03-29T04:01:06;1.35;;;1.25;;
13477;SDS011;12598;62.382;17.344;2024-03-29T04:02:06;1.08;;;1.00;;
13477;SDS011;12598;62.382;17.344;2024-03-29T04:03:07;1.20;;;1.10;;
13477;SDS011;12598;62.382;17.344;2024-03-29T04:04:08;1.20;;;1.10;;
13477;SDS011;12598;62.382;17.344;2024-03-29T04:05:09;1.40;;;1.30;;
13477;SDS011;12598;62.382;17.344;2024-03-29T04:06:10;1.30;;;1.20;;
13477;SDS011;12598;62.382;17.344;2024-03-29T04:07:11;1.23;;;1.13;;
13477;SDS011;12598;62.382;17.344;2024-03-29T04:08:12;1.17;;;1.10;;
13477;SDS011;12598;62.382;17.344;2024-03-29T04:09:14;1.10;;;1.10;;
13477;SDS011;12598;62.382;17.344;2024-03-29T04:10:16;1.00;;;1.00;;
13477;SDS011;12598;62.382;17.344;2024-03-29T04:11:17;0.85;;;0.82;;
13477;SDS011;12598;62.382;17.344;2024-03-29T04:12:18;1.10;;;1.00;;
13477;SDS011;12598;62.382;17.344;2024-03-29T04:13:19;1.27;;;1.17;;
13477;SDS011;12598;62.382;17.344;2024-03-29T04:14:19;0.80;;;0.80;;
13477;SDS011;12598;62.382;17.344;2024-03-29T04:15:20;1.10;;;1.00;;
13477;SDS011;12598;62.382;17.344;2024-03-29T04:16:21;1.20;;;1.10;;
13477;SDS011;12598;62.382;17.344;2024-03-29T04:17:22;1.08;;;0.98;;
13477;SDS011;12598;62.382;17.344;2024-03-29T04:18:24;1.13;;;1.00;;
13477;SDS011;12598;62.382;17.344;2024-03-29T04:19:25;1.17;;;1.08;;
13477;SDS011;12598;62.382;17.344;2024-03-29T04:20:26;0.80;;;0.80;;
13477;SDS011;12598;62.382;17.344;2024-03-29T04:21:27;0.88;;;0.80;;
13477;SDS011;12598;62.382;17.344;2024-03-29T04:22:28;1.15;;;0.98;;
13477;SDS011;12598;62.382;17.344;2024-03-29T04:23:30;0.90;;;0.90;;
13477;SDS011;12598;62.382;17.344;2024-03-29T04:24:31;1.10;;;1.08;;
13477;SDS011;12598;62.382;17.344;2024-03-29T04:25:32;0.82;;;0.82;;
13477;SDS011;12598;62.382;17.344;2024-03-29T04:26:33;0.80;;;0.80;;
13477;SDS011;12598;62.382;17.344;2024-03-29T04:27:34;0.80;;;0.80;;
13477;SDS011;12598;62.382;17.344;2024-03-29T04:28:35;0.90;;;0.90;;
13477;SDS011;12598;62.382;17.344;2024-03-29T04:29:35;0.73;;;0.73;;
13477;SDS011;12598;62.382;17.344;2024-03-29T04:30:36;1.20;;;1.00;;
13477;SDS011;12598;62.382;17.344;2024-03-29T04:31:37;1.00;;;0.93;;
13477;SDS011;12598;62.382;17.344;2024-03-29T04:32:38;0.88;;;0.88;;
13477;SDS011;12598;62.382;17.344;2024-03-29T04:33:39;1.17;;;1.00;;
13477;SDS011;12598;62.382;17.344;2024-03-29T04:34:39;0.80;;;0.80;;
13477;SDS011;12598;62.382;17.344;2024-03-29T04:35:40;0.88;;;0.80;;
13477;SDS011;12598;62.382;17.344;2024-03-29T04:36:41;1.13;;;0.90;;
13477;SDS011;12598;62.382;17.344;2024-03-29T04:37:42;1.65;;;0.70;;
13477;SDS011;12598;62.382;17.344;2024-03-29T04:38:43;0.82;;;0.75;;
13477;SDS011;12598;62.382;17.344;2024-03-29T04:39:45;0.93;;;0.93;;
13477;SDS011;12598;62.382;17.344;2024-03-29T04:40:47;0.82;;;0.70;;
13477;SDS011;12598;62.382;17.344;2024-03-29T04:41:52;0.80;;;0.80;;
13477;SDS011;12598;62.382;17.344;2024-03-29T04:42:52;0.70;;;0.70;;
13477;SDS011;12598;62.382;17.344;2024-03-29T04:43:53;1.00;;;0.90;;
13477;SDS011;12598;62.382;17.344;2024-03-29T04:44:54;0.80;;;0.80;;
13477;SDS011;12598;62.382;17.344;2024-03-29T04:46:07;0.88;;;0.88;;
13477;SDS011;12598;62.382;17.344;2024-03-29T04:47:11;0.80;;;0.80;;
13477;SDS011;12598;62.382;17.344;2024-03-29T04:48:12;0.70;;;0.70;;
13477;SDS011;12598;62.382;17.344;2024-03-29T04:49:13;0.80;;;0.80;;
13477;SDS011;12598;62.382;17.344;2024-03-29T04:50:17;1.38;;;1.00;;
13477;SDS011;12598;62.382;17.344;2024-03-29T04:51:17;1.00;;;0.65;;
13477;SDS011;12598;62.382;17.344;2024-03-29T04:52:18;0.77;;;0.77;;
13477;SDS011;12598;62.382;17.344;2024-03-29T04:53:19;0.75;;;0.75;;
13477;SDS011;12598;62.382;17.344;2024-03-29T04:54:20;1.10;;;0.85;;
13477;SDS011;12598;62.382;17.344;2024-03-29T04:55:21;0.70;;;0.70;;
13477;SDS011;12598;62.382;17.344;2024-03-29T04:56:21;0.50;;;0.50;;
13477;SDS011;12598;62.382;17.344;2024-03-29T04:57:22;0.80;;;0.80;;
13477;SDS011;12598;62.382;17.344;2024-03-29T04:58:26;1.17;;;0.90;;
13477;SDS011;12598;62.382;17.344;2024-03-29T04:59:28;0.75;;;0.75;;
13477;SDS011;12598;62.382;17.344;2024-03-29T05:00:29;1.10;;;0.70;;
13477;SDS011;12598;62.382;17.344;2024-03-29T05:01:30;1.00;;;0.90;;
13477;SDS011;12598;62.382;17.344;2024-03-29T05:02:30;0.98;;;0.80;;
13477;SDS011;12598;62.382;17.344;2024-03-29T05:03:31;0.80;;;0.80;;
13477;SDS011;12598;62.382;17.344;2024-03-29T05:04:32;0.70;;;0.60;;
13477;SDS011;12598;62.382;17.344;2024-03-29T05:05:33;0.80;;;0.75;;
13477;SDS011;12598;62.382;17.344;2024-03-29T05:06:34;0.90;;;0.80;;
13477;SDS011;12598;62.382;17.344;2024-03-29T05:07:35;0.65;;;0.60;;
13477;SDS011;12598;62.382;17.344;2024-03-29T05:08:36;0.93;;;0.70;;
13477;SDS011;12598;62.382;17.344;2024-03-29T05:09:37;1.00;;;0.90;;
13477;SDS011;12598;62.382;17.344;2024-03-29T05:10:41;0.80;;;0.60;;
13477;SDS011;12598;62.382;17.344;2024-03-29T05:11:42;0.65;;;0.65;;
13477;SDS011;12598;62.382;17.344;2024-03-29T05:12:43;0.80;;;0.70;;
13477;SDS011;12598;62.382;17.344;2024-03-29T05:13:44;1.15;;;0.57;;
13477;SDS011;12598;62.382;17.344;2024-03-29T05:14:45;1.20;;;0.80;;
13477;SDS011;12598;62.382;17.344;2024-03-29T05:15:46;0.70;;;0.68;;
13477;SDS011;12598;62.382;17.344;2024-03-29T05:16:48;0.73;;;0.70;;
13477;SDS011;12598;62.382;17.344;2024-03-29T05:17:49;0.80;;;0.80;;
13477;SDS011;12598;62.382;17.344;2024-03-29T05:18:50;0.90;;;0.80;;
13477;SDS011;12598;62.382;17.344;2024-03-29T05:19:51;0.70;;;0.70;;
13477;SDS011;12598;62.382;17.344;2024-03-29T05:20:52;0.82;;;0.80;;
13477;SDS011;12598;62.382;17.344;2024-03-29T05:21:53;0.75;;;0.73;;
13477;SDS011;12598;62.382;17.344;2024-03-29T05:22:54;0.90;;;0.70;;
13477;SDS011;12598;62.382;17.344;2024-03-29T05:23:55;0.65;;;0.65;;
13477;SDS011;12598;62.382;17.344;2024-03-29T05:24:56;1.08;;;0.90;;
13477;SDS011;12598;62.382;17.344;2024-03-29T05:25:57;0.70;;;0.70;;
13477;SDS011;12598;62.382;17.344;2024-03-29T05:26:58;0.98;;;0.85;;
13477;SDS011;12598;62.382;17.344;2024-03-29T05:27:59;0.90;;;0.70;;
13477;SDS011;12598;62.382;17.344;2024-03-29T05:28:59;0.95;;;0.85;;
13477;SDS011;12598;62.382;17.344;2024-03-29T05:30:01;0.70;;;0.60;;
13477;SDS011;12598;62.382;17.344;2024-03-29T05:31:10;1.13;;;0.60;;
13477;SDS011;12598;62.382;17.344;2024-03-29T05:32:14;0.80;;;0.80;;
13477;SDS011;12598;62.382;17.344;2024-03-29T05:33:15;1.00;;;0.68;;
13477;SDS011;12598;62.382;17.344;2024-03-29T05:34:16;1.05;;;0.90;;
13477;SDS011;12598;62.382;17.344;2024-03-29T05:35:17;1.05;;;0.77;;
13477;SDS011;12598;62.382;17.344;2024-03-29T05:36:18;1.00;;;0.90;;
13477;SDS011;12598;62.382;17.344;2024-03-29T05:37:19;0.63;;;0.50;;
13477;SDS011;12598;62.382;17.344;2024-03-29T05:38:20;0.70;;;0.70;;
13477;SDS011;12598;62.382;17.344;2024-03-29T05:39:21;0.77;;;0.77;;
13477;SDS011;12598;62.382;17.344;2024-03-29T05:40:21;0.85;;;0.70;;
13477;SDS011;12598;62.382;17.344;2024-03-29T05:41:28;0.70;;;0.70;;
13477;SDS011;12598;62.382;17.344;2024-03-29T05:42:29;0.70;;;0.70;;
13477;SDS011;12598;62.382;17.344;2024-03-29T05:43:31;0.77;;;0.77;;
13477;SDS011;12598;62.382;17.344;2024-03-29T05:44:32;0.77;;;0.77;;
13477;SDS011;12598;62.382;17.344;2024-03-29T05:45:33;0.93;;;0.85;;
13477;SDS011;12598;62.382;17.344;2024-03-29T05:46:34;0.73;;;0.73;;
13477;SDS011;12598;62.382;17.344;2024-03-29T05:47:35;0.70;;;0.68;;
13477;SDS011;12598;62.382;17.344;2024-03-29T05:48:35;0.85;;;0.85;;
13477;SDS011;12598;62.382;17.344;2024-03-29T05:49:36;0.75;;;0.70;;
13477;SDS011;12598;62.382;17.344;2024-03-29T05:50:37;0.75;;;0.75;;
13477;SDS011;12598;62.382;17.344;2024-03-29T05:51:38;0.90;;;0.80;;
13477;SDS011;12598;62.382;17.344;2024-03-29T05:52:39;0.73;;;0.70;;
13477;SDS011;12598;62.382;17.344;2024-03-29T05:53:40;0.85;;;0.85;;
13477;SDS011;12598;62.382;17.344;2024-03-29T05:54:44;0.80;;;0.80;;
13477;SDS011;12598;62.382;17.344;2024-03-29T05:55:46;1.10;;;1.00;;
13477;SDS011;12598;62.382;17.344;2024-03-29T05:56:46;0.90;;;0.90;;
13477;SDS011;12598;62.382;17.344;2024-03-29T05:57:47;0.95;;;0.90;;
13477;SDS011;12598;62.382;17.344;2024-03-29T05:58:48;0.90;;;0.90;;
13477;SDS011;12598;62.382;17.344;2024-03-29T05:59:49;0.90;;;0.90;;
13477;SDS011;12598;62.382;17.344;2024-03-29T06:00:50;1.00;;;0.90;;
13477;SDS011;12598;62.382;17.344;2024-03-29T06:01:51;0.80;;;0.80;;
13477;SDS011;12598;62.382;17.344;2024-03-29T06:02:52;0.80;;;0.70;;
13477;SDS011;12598;62.382;17.344;2024-03-29T06:03:53;0.82;;;0.82;;